createdAt,value
2023-05-03T00:00:08.573Z,14.25
2023-05-03T00:02:40.189Z,18.85
2023-05-03T00:05:13.195Z,15.48
2023-05-03T00:07:43.902Z,17.05
2023-05-03T00:10:13.484Z,17.48
2023-05-03T00:12:42.212Z,15.48
2023-05-03T00:15:11.100Z,19.30
2023-05-03T00:17:38.871Z,14.25
2023-05-03T00:20:08.127Z,17.88
2023-05-03T00:22:36.310Z,13.40
2023-05-03T00:25:04.840Z,18.85
2023-05-03T00:27:32.088Z,19.08
2023-05-03T00:29:59.388Z,16.98
2023-05-03T00:32:26.885Z,15.38
2023-05-03T00:34:57.882Z,16.63
2023-05-03T00:37:26.085Z,14.77
2023-05-03T00:39:53.735Z,16.52
2023-05-03T00:42:21.228Z,17.25
2023-05-03T00:44:48.362Z,16.73
2023-05-03T00:47:16.869Z,18.83
2023-05-03T00:49:44.833Z,16.63
2023-05-03T00:52:12.490Z,20.27
2023-05-03T00:54:40.131Z,18.63
2023-05-03T00:57:07.664Z,18.58
2023-05-03T00:59:35.053Z,21.55
2023-05-03T01:02:02.348Z,21.90
2023-05-03T01:04:30.642Z,21.50
2023-05-03T01:07:05.486Z,25.25
2023-05-03T01:09:49.332Z,25.52
2023-05-03T01:13:00.752Z,25.48
2023-05-03T01:15:46.877Z,25.23
2023-05-03T01:18:27.082Z,26.60
2023-05-03T01:20:55.280Z,26.50
2023-05-03T01:24:03.467Z,23.27
2023-05-03T01:26:30.758Z,26.92
2023-05-03T01:28:58.548Z,21.23
2023-05-03T01:32:03.349Z,25.73
2023-05-03T01:34:58.932Z,22.75
2023-05-03T01:37:26.393Z,22.15
2023-05-03T01:40:04.381Z,24.52
2023-05-03T01:42:36.795Z,23.80
2023-05-03T01:45:06.103Z,20.75
2023-05-03T01:47:33.793Z,21.50
2023-05-03T01:50:01.132Z,17.60
2023-05-03T01:52:28.476Z,17.77
2023-05-03T01:54:55.714Z,26.77
2023-05-03T01:57:23.141Z,19.60
2023-05-03T01:59:50.434Z,26.90
2023-05-03T02:02:17.675Z,22.13
2023-05-03T02:04:44.960Z,19.85
2023-05-03T02:07:13.008Z,22.08
2023-05-03T02:09:40.313Z,21.15
2023-05-03T02:12:08.087Z,21.00
2023-05-03T02:14:35.489Z,21.05
2023-05-03T02:17:03.323Z,23.80
2023-05-03T02:19:30.885Z,20.20
2023-05-03T02:21:58.265Z,18.67
2023-05-03T02:24:25.584Z,19.42
2023-05-03T02:26:52.933Z,19.70
2023-05-03T02:29:20.173Z,19.85
2023-05-03T02:31:47.534Z,19.73
2023-05-03T02:34:14.753Z,19.92
2023-05-03T02:36:42.054Z,23.42
2023-05-03T02:39:09.302Z,25.10
2023-05-03T02:41:36.653Z,25.27
2023-05-03T02:44:05.131Z,24.45
2023-05-03T02:46:32.803Z,22.83
2023-05-03T02:49:00.047Z,20.63
2023-05-03T02:51:27.407Z,25.50
2023-05-03T02:53:54.999Z,24.27
2023-05-03T02:56:22.490Z,25.30
2023-05-03T02:58:49.854Z,27.02
2023-05-03T03:01:17.133Z,28.23
2023-05-03T03:03:44.934Z,22.90
2023-05-03T03:06:12.531Z,29.90
2023-05-03T03:08:39.892Z,27.48
2023-05-03T03:11:08.563Z,29.85
2023-05-03T03:13:39.818Z,27.00
2023-05-03T03:16:10.036Z,27.83
2023-05-03T03:18:37.834Z,34.35
2023-05-03T03:21:05.521Z,27.33
2023-05-03T03:23:34.619Z,28.05
2023-05-03T03:26:02.080Z,32.75
2023-05-03T03:28:29.547Z,29.85
2023-05-03T03:31:00.514Z,34.58
2023-05-03T03:33:27.726Z,27.15
2023-05-03T03:36:01.976Z,26.17
2023-05-03T03:38:34.894Z,28.08
2023-05-03T03:41:05.940Z,28.75
2023-05-03T03:43:33.466Z,29.77
2023-05-03T03:46:03.096Z,34.92
2023-05-03T03:48:30.369Z,28.70
2023-05-03T03:50:57.750Z,27.25
2023-05-03T03:53:31.981Z,28.95
2023-05-03T03:55:59.866Z,28.90
2023-05-03T03:58:27.130Z,31.45
2023-05-03T04:00:55.679Z,29.20
2023-05-03T04:03:25.127Z,28.00
2023-05-03T04:05:52.671Z,34.58
2023-05-03T04:08:21.440Z,34.60
2023-05-03T04:10:49.063Z,33.83
2023-05-03T04:13:16.728Z,36.97
2023-05-03T04:15:45.348Z,37.83
2023-05-03T04:18:13.830Z,33.10
2023-05-03T04:20:42.500Z,34.33
2023-05-03T04:23:09.836Z,34.60
2023-05-03T04:25:39.124Z,31.75
2023-05-03T04:28:13.696Z,42.67
2023-05-03T04:30:47.619Z,36.67
2023-05-03T04:33:19.547Z,34.88
2023-05-03T04:35:53.242Z,36.35
2023-05-03T04:38:20.858Z,41.25
2023-05-03T04:40:48.295Z,38.60
2023-05-03T04:43:15.957Z,34.97
2023-05-03T04:45:46.253Z,33.10
2023-05-03T04:48:21.002Z,37.22
2023-05-03T04:50:48.320Z,38.28
2023-05-03T04:53:18.438Z,46.80
2023-05-03T04:55:51.464Z,40.83
2023-05-03T04:58:18.940Z,40.03
2023-05-03T05:00:46.867Z,47.40
2023-05-03T05:03:21.573Z,44.30
2023-05-03T05:05:51.505Z,41.20
2023-05-03T05:08:20.960Z,47.05
2023-05-03T05:10:52.436Z,50.78
2023-05-03T05:13:24.504Z,50.22
2023-05-03T05:15:52.116Z,43.70
2023-05-03T05:18:19.427Z,44.83
2023-05-03T05:20:48.828Z,52.42
2023-05-03T05:23:16.389Z,42.33
2023-05-03T05:25:47.156Z,47.70
2023-05-03T05:28:14.708Z,43.97
2023-05-03T05:30:42.086Z,44.38
2023-05-03T05:33:09.752Z,52.05
2023-05-03T05:35:37.648Z,47.17
2023-05-03T05:38:05.738Z,41.03
2023-05-03T05:40:34.718Z,44.50
2023-05-03T05:43:02.504Z,54.90
2023-05-03T05:45:34.704Z,50.00
2023-05-03T05:48:04.782Z,45.20
2023-05-03T05:50:32.958Z,41.72
2023-05-03T05:53:05.270Z,50.58
2023-05-03T05:55:36.731Z,47.50
2023-05-03T05:58:04.510Z,46.10
2023-05-03T06:00:41.144Z,43.80
2023-05-03T06:03:08.549Z,46.90
2023-05-03T06:05:35.906Z,50.50
2023-05-03T06:08:03.202Z,53.40
2023-05-03T06:10:30.586Z,47.97
2023-05-03T06:12:58.475Z,50.72
2023-05-03T06:15:27.898Z,48.33
2023-05-03T06:17:55.814Z,48.60
2023-05-03T06:20:24.577Z,37.53
2023-05-03T06:22:53.147Z,31.25
2023-05-03T06:25:21.381Z,30.02
2023-05-03T06:27:50.736Z,29.98
2023-05-03T06:30:21.949Z,19.70
2023-05-03T06:32:50.499Z,21.40
2023-05-03T06:35:19.853Z,20.98
2023-05-03T06:37:48.581Z,21.17
2023-05-03T06:40:16.222Z,25.63
2023-05-03T06:42:43.584Z,26.83
2023-05-03T06:45:20.054Z,27.25
2023-05-03T06:47:47.464Z,24.23
2023-05-03T06:50:14.982Z,22.67
2023-05-03T06:52:42.452Z,20.08
2023-05-03T06:55:10.395Z,23.98
2023-05-03T06:57:37.762Z,22.40
2023-05-03T07:00:07.389Z,26.23
2023-05-03T07:02:35.376Z,20.67
2023-05-03T07:05:03.185Z,20.98
2023-05-03T07:07:31.121Z,24.05
2023-05-03T07:09:58.586Z,24.60
2023-05-03T07:12:28.420Z,26.65
2023-05-03T07:14:56.247Z,26.70
2023-05-03T07:17:24.805Z,20.80
2023-05-03T07:19:52.911Z,19.13
2023-05-03T07:22:25.476Z,22.98
2023-05-03T07:24:58.992Z,26.17
2023-05-03T07:27:27.280Z,23.38
2023-05-03T07:29:54.912Z,27.48
2023-05-03T07:32:22.453Z,20.85
2023-05-03T07:34:50.024Z,24.30
2023-05-03T07:37:17.581Z,23.58
2023-05-03T07:39:45.641Z,27.08
2023-05-03T07:42:13.172Z,24.88
2023-05-03T07:44:41.210Z,21.40
2023-05-03T07:47:08.435Z,20.35
2023-05-03T07:49:38.167Z,19.55
2023-05-03T07:52:05.646Z,19.40
2023-05-03T07:54:32.852Z,21.27
2023-05-03T07:57:00.776Z,27.50
2023-05-03T07:59:28.021Z,18.52
2023-05-03T08:01:55.509Z,20.23
2023-05-03T08:04:24.655Z,21.80
2023-05-03T08:06:52.817Z,20.02
2023-05-03T08:09:20.786Z,21.83
2023-05-03T08:11:48.257Z,15.25
2023-05-03T08:14:15.908Z,18.75
2023-05-03T08:16:43.379Z,18.58
2023-05-03T08:19:10.736Z,26.98
2023-05-03T08:21:38.166Z,18.38
2023-05-03T08:24:09.330Z,23.83
2023-05-03T08:26:36.739Z,20.17
2023-05-03T08:29:03.998Z,26.50
2023-05-03T08:31:31.537Z,20.60
2023-05-03T08:33:59.028Z,23.08
2023-05-03T08:36:26.429Z,23.73
2023-05-03T08:38:53.671Z,20.15
2023-05-03T08:41:31.282Z,18.65
2023-05-03T08:44:01.033Z,23.95
2023-05-03T08:46:29.405Z,21.27
2023-05-03T08:48:57.424Z,23.40
2023-05-03T08:51:25.504Z,27.67
2023-05-03T08:53:52.820Z,26.63
2023-05-03T08:56:40.130Z,29.63
2023-05-03T08:59:08.661Z,37.03
2023-05-03T09:01:42.637Z,23.42
2023-05-03T09:04:11.837Z,24.80
2023-05-03T09:06:39.773Z,22.25
2023-05-03T09:09:08.788Z,21.40
2023-05-03T09:11:38.728Z,22.85
2023-05-03T09:14:19.164Z,27.25
2023-05-03T09:16:47.559Z,22.27
2023-05-03T09:19:18.613Z,18.60
2023-05-03T09:21:47.725Z,21.48
2023-05-03T09:24:22.302Z,20.80
2023-05-03T09:26:51.880Z,23.33
2023-05-03T09:29:31.226Z,24.30
2023-05-03T09:32:01.840Z,25.95
2023-05-03T09:34:29.378Z,25.65
2023-05-03T09:36:56.679Z,18.90
2023-05-03T09:39:24.314Z,19.60
2023-05-03T09:41:51.721Z,20.42
2023-05-03T09:44:19.200Z,22.85
2023-05-03T09:47:06.297Z,23.40
2023-05-03T09:49:34.411Z,29.45
2023-05-03T09:52:02.980Z,18.25
2023-05-03T09:54:35.556Z,19.08
2023-05-03T09:57:08.079Z,22.67
2023-05-03T09:59:38.444Z,23.33
2023-05-03T10:02:08.459Z,19.02
2023-05-03T10:04:43.901Z,29.50
2023-05-03T10:07:18.474Z,25.48
2023-05-03T10:09:48.611Z,22.25
2023-05-03T10:12:18.960Z,22.52
2023-05-03T10:14:49.420Z,23.58
2023-05-03T10:17:47.249Z,21.00
2023-05-03T10:20:23.865Z,18.17
2023-05-03T10:23:06.656Z,21.65
2023-05-03T10:25:37.190Z,20.95
2023-05-03T10:30:38.502Z,20.02
2023-05-03T10:33:14.642Z,25.52
2023-05-03T10:35:53.303Z,16.98
2023-05-03T10:38:38.868Z,21.52
2023-05-03T10:41:07.297Z,21.23
2023-05-03T10:43:34.641Z,19.38
2023-05-03T10:46:07.240Z,19.10
2023-05-03T10:48:35.747Z,20.48
2023-05-03T10:51:29.052Z,23.20
2023-05-03T10:53:56.531Z,18.88
2023-05-03T10:56:24.136Z,17.63
2023-05-03T10:58:56.189Z,23.45
2023-05-03T11:01:25.023Z,17.52
2023-05-03T11:04:17.041Z,16.40
2023-05-03T11:06:46.468Z,18.60
2023-05-03T11:09:14.996Z,20.55
2023-05-03T11:11:43.634Z,19.20
2023-05-03T11:14:13.213Z,32.35
2023-05-03T11:16:48.082Z,14.50
2023-05-03T11:19:16.142Z,16.10
2023-05-03T11:21:44.517Z,16.13
2023-05-03T11:24:13.319Z,15.85
2023-05-03T11:26:40.851Z,13.10
2023-05-03T11:29:10.802Z,20.90
2023-05-03T11:31:38.159Z,16.88
2023-05-03T11:34:06.893Z,15.30
2023-05-03T11:36:34.661Z,24.63
2023-05-03T11:39:05.887Z,19.15
2023-05-03T11:41:33.559Z,16.95
2023-05-03T11:44:15.224Z,17.40
2023-05-03T11:46:45.631Z,18.10
2023-05-03T11:49:19.161Z,17.17
2023-05-03T11:51:49.806Z,19.17
2023-05-03T11:54:24.987Z,19.13
2023-05-03T11:56:58.201Z,19.58
2023-05-03T11:59:39.474Z,23.88
2023-05-03T12:02:14.039Z,20.80
2023-05-03T12:04:47.905Z,18.90
2023-05-03T12:07:19.049Z,18.08
2023-05-03T12:09:56.604Z,21.10
2023-05-03T12:12:36.069Z,17.58
2023-05-03T12:15:08.008Z,21.63
2023-05-03T12:22:58.819Z,18.98
2023-05-03T12:25:30.567Z,21.45
2023-05-03T12:30:34.161Z,20.38
2023-05-03T12:33:04.397Z,20.13
2023-05-03T12:35:34.007Z,18.08
2023-05-03T12:38:04.614Z,19.15
2023-05-03T12:40:34.570Z,14.48
2023-05-03T12:43:03.534Z,17.60
2023-05-03T12:45:34.593Z,19.60
2023-05-03T12:48:03.114Z,17.73
2023-05-03T12:50:31.891Z,15.27
2023-05-03T12:53:02.221Z,16.75
2023-05-03T12:58:40.138Z,18.60
2023-05-03T13:03:23.271Z,15.85
2023-05-03T13:05:53.485Z,14.15
2023-05-03T13:08:21.841Z,19.20
2023-05-03T13:10:49.728Z,17.10
2023-05-03T13:13:17.334Z,18.20
2023-05-03T13:15:44.574Z,15.85
2023-05-03T13:18:13.625Z,16.20
2023-05-03T13:20:40.970Z,17.70
2023-05-03T13:23:08.250Z,17.98
2023-05-03T13:25:36.035Z,20.20
2023-05-03T13:28:04.016Z,17.27
2023-05-03T13:30:31.669Z,18.70
2023-05-03T13:32:59.012Z,15.32
2023-05-03T13:35:26.408Z,19.13
2023-05-03T13:37:53.714Z,19.05
2023-05-03T13:40:21.224Z,15.45
2023-05-03T13:42:48.894Z,18.52
2023-05-03T13:45:16.598Z,16.25
2023-05-03T13:48:04.724Z,17.23
2023-05-03T13:50:31.622Z,21.45
2023-05-03T13:52:58.926Z,20.27
2023-05-03T13:55:27.043Z,27.10
2023-05-03T13:57:54.376Z,16.95
2023-05-03T14:00:22.039Z,19.67
2023-05-03T14:02:49.618Z,21.00
2023-05-03T14:05:17.427Z,24.25
2023-05-03T14:07:46.210Z,21.50
2023-05-03T14:10:13.954Z,18.30
2023-05-03T14:12:41.861Z,20.95
2023-05-03T14:15:09.781Z,18.85
2023-05-03T14:17:37.060Z,19.30
2023-05-03T14:20:08.406Z,18.35
2023-05-03T14:22:35.813Z,21.15
2023-05-03T14:25:03.249Z,25.45
2023-05-03T14:27:30.961Z,19.85
2023-05-03T14:29:58.276Z,23.70
2023-05-03T14:32:25.851Z,21.50
2023-05-03T14:34:53.367Z,20.38
2023-05-03T14:37:21.497Z,29.75
2023-05-03T14:39:49.309Z,28.05
2023-05-03T14:42:16.595Z,24.92
2023-05-03T14:44:44.666Z,23.17
2023-05-03T14:47:12.033Z,25.77
2023-05-03T14:49:42.189Z,23.58
2023-05-03T14:52:09.530Z,26.25
2023-05-03T14:54:38.101Z,27.58
2023-05-03T14:57:05.585Z,22.73
2023-05-03T14:59:33.779Z,26.40
2023-05-03T15:02:02.043Z,31.20
2023-05-03T15:04:29.788Z,24.88
2023-05-03T15:07:02.937Z,26.85
2023-05-03T15:09:38.101Z,24.80
2023-05-03T15:12:05.864Z,20.90
2023-05-03T15:14:33.272Z,25.33
2023-05-03T15:17:00.944Z,24.55
2023-05-03T15:19:28.868Z,25.27
2023-05-03T15:21:56.293Z,24.63
2023-05-03T15:24:23.788Z,23.85
2023-05-03T15:26:51.687Z,25.33
2023-05-03T15:29:19.200Z,26.90
2023-05-03T15:31:46.956Z,25.73
2023-05-03T15:34:14.545Z,27.05
2023-05-03T15:36:41.875Z,31.20
2023-05-03T15:39:10.199Z,23.60
2023-05-03T15:41:37.791Z,27.55
2023-05-03T15:44:07.325Z,28.25
2023-05-03T15:46:34.954Z,24.67
2023-05-03T15:49:02.586Z,29.45
2023-05-03T15:51:30.034Z,26.63
2023-05-03T15:53:57.456Z,26.33
2023-05-03T15:56:25.321Z,26.30
2023-05-03T15:58:52.651Z,35.10
2023-05-03T16:01:20.181Z,31.95
2023-05-03T16:03:48.052Z,23.58
2023-05-03T16:06:18.303Z,24.42
2023-05-03T16:08:46.294Z,27.63
2023-05-03T16:11:13.705Z,27.60
2023-05-03T16:13:41.281Z,26.83
2023-05-03T16:16:09.143Z,28.38
2023-05-03T16:18:36.865Z,27.70
2023-05-03T16:21:04.305Z,27.92
2023-05-03T16:23:31.699Z,30.75
2023-05-03T16:25:58.960Z,27.63
2023-05-03T16:28:26.512Z,27.83
2023-05-03T16:30:53.894Z,26.85
2023-05-03T16:33:21.575Z,29.38
2023-05-03T16:35:50.091Z,34.40
2023-05-03T16:38:17.460Z,34.72
2023-05-03T16:40:46.235Z,31.83
2023-05-03T16:43:15.714Z,32.03
2023-05-03T16:45:43.264Z,33.30
2023-05-03T16:48:11.467Z,30.67
2023-05-03T16:50:42.382Z,27.13
2023-05-03T16:53:11.769Z,29.05
2023-05-03T16:55:39.078Z,32.70
2023-05-03T16:58:07.250Z,28.02
2023-05-03T17:00:35.574Z,25.25
2023-05-03T17:03:03.511Z,30.52
2023-05-03T17:05:33.369Z,30.45
2023-05-03T17:08:04.562Z,26.20
2023-05-03T17:10:31.932Z,29.90
2023-05-03T17:13:01.375Z,36.53
2023-05-03T17:15:29.052Z,38.67
2023-05-03T17:17:56.533Z,32.80
2023-05-03T17:20:23.803Z,34.50
2023-05-03T17:22:51.634Z,29.88
2023-05-03T17:25:19.057Z,26.80
2023-05-03T17:27:46.348Z,38.20
2023-05-03T17:30:14.564Z,35.45
2023-05-03T17:32:42.078Z,33.83
2023-05-03T17:35:11.414Z,29.67
2023-05-03T17:37:39.801Z,29.77
2023-05-03T17:40:08.180Z,39.15
2023-05-03T17:42:36.071Z,32.88
2023-05-03T17:45:04.836Z,39.60
2023-05-03T17:47:32.543Z,35.75
2023-05-03T17:50:00.190Z,35.42
2023-05-03T17:52:27.563Z,37.80
2023-05-03T17:54:56.828Z,33.53
2023-05-03T17:57:24.382Z,33.88
2023-05-03T17:59:52.012Z,32.30
2023-05-03T18:02:19.456Z,37.88
2023-05-03T18:04:47.030Z,26.95
2023-05-03T18:07:14.935Z,31.80
2023-05-03T18:09:42.389Z,32.40
2023-05-03T18:12:09.639Z,31.60
2023-05-03T18:14:37.617Z,30.48
2023-05-03T18:17:05.067Z,41.75
2023-05-03T18:19:32.514Z,31.85
2023-05-03T18:22:00.005Z,34.83
2023-05-03T18:24:27.352Z,31.27
2023-05-03T18:26:54.851Z,29.67
2023-05-03T18:29:22.142Z,40.80
2023-05-03T18:31:49.466Z,37.17
2023-05-03T18:34:16.901Z,36.08
2023-05-03T18:36:44.156Z,38.75
2023-05-03T18:39:11.450Z,31.35
2023-05-03T18:41:38.752Z,29.88
2023-05-03T18:44:07.854Z,35.42
2023-05-03T18:46:37.560Z,39.63
2023-05-03T18:49:05.143Z,31.30
2023-05-03T18:51:32.847Z,33.60
2023-05-03T18:54:00.230Z,36.30
2023-05-03T18:56:30.360Z,30.63
2023-05-03T18:58:57.935Z,32.47
2023-05-03T19:01:26.796Z,37.00
2023-05-03T19:03:55.141Z,35.85
2023-05-03T19:06:22.694Z,29.85
2023-05-03T19:08:49.998Z,29.60
2023-05-03T19:11:17.521Z,33.22
2023-05-03T19:13:46.320Z,30.45
2023-05-03T19:16:15.743Z,36.08
2023-05-03T19:18:44.394Z,36.08
2023-05-03T19:21:17.961Z,29.85
2023-05-03T19:23:45.601Z,32.28
2023-05-03T19:26:13.283Z,35.30
2023-05-03T19:28:40.672Z,31.73
2023-05-03T19:31:08.169Z,34.08
2023-05-03T19:33:35.900Z,30.02
2023-05-03T19:36:06.812Z,35.60
2023-05-03T19:38:38.188Z,35.42
2023-05-03T19:41:11.977Z,37.72
2023-05-03T19:43:40.534Z,40.00
2023-05-03T19:46:08.526Z,39.83
2023-05-03T19:48:36.599Z,36.35
2023-05-03T19:51:05.912Z,43.38
2023-05-03T19:53:34.010Z,37.45
2023-05-03T19:56:07.273Z,36.58
2023-05-03T19:58:34.553Z,39.60
2023-05-03T20:01:02.732Z,36.95
2023-05-03T20:03:30.376Z,38.85
2023-05-03T20:05:58.422Z,40.08
2023-05-03T20:08:25.945Z,44.25
2023-05-03T20:10:55.880Z,50.45
2023-05-03T20:13:25.929Z,42.33
2023-05-03T20:15:53.906Z,44.38
2023-05-03T20:18:21.517Z,48.90
2023-05-03T20:20:48.897Z,52.05
2023-05-03T20:23:17.267Z,59.35
2023-05-03T20:25:44.714Z,48.95
2023-05-03T20:28:13.077Z,56.00
2023-05-03T20:30:40.611Z,57.13
2023-05-03T20:33:08.002Z,58.45
2023-05-03T20:35:39.749Z,59.83
2023-05-03T20:38:07.063Z,57.88
2023-05-03T20:40:34.628Z,61.60
2023-05-03T20:43:01.991Z,63.30
2023-05-03T20:45:29.944Z,69.88
2023-05-03T20:47:57.412Z,63.30
2023-05-03T20:50:24.766Z,55.20
2023-05-03T20:52:52.306Z,63.45
2023-05-03T20:55:19.692Z,57.65
2023-05-03T20:57:47.019Z,50.63
2023-05-03T21:00:16.080Z,60.22
2023-05-03T21:02:43.496Z,58.05
2023-05-03T21:05:11.430Z,54.63
2023-05-03T21:07:38.871Z,57.30
2023-05-03T21:10:08.016Z,56.90
2023-05-03T21:12:35.517Z,58.33
2023-05-03T21:15:02.790Z,58.33
2023-05-03T21:17:30.045Z,67.28
2023-05-03T21:19:57.346Z,55.20
2023-05-03T21:22:24.720Z,62.92
2023-05-03T21:24:52.021Z,63.92
2023-05-03T21:27:22.255Z,64.75
2023-05-03T21:29:49.598Z,67.10
2023-05-03T21:32:16.804Z,72.40
2023-05-03T21:34:44.054Z,82.03
2023-05-03T21:37:11.544Z,77.53
2023-05-03T21:39:39.576Z,74.88
2023-05-03T21:42:07.081Z,71.55
2023-05-03T21:44:35.189Z,72.95
2023-05-03T21:47:03.171Z,83.47
2023-05-03T21:49:30.825Z,84.28
2023-05-03T21:51:58.342Z,71.35
2023-05-03T21:54:26.519Z,75.10
2023-05-03T21:56:53.753Z,75.22
2023-05-03T21:59:21.463Z,74.40
2023-05-03T22:01:48.937Z,69.32
2023-05-03T22:04:16.157Z,81.90
2023-05-03T22:06:44.387Z,73.53
2023-05-03T22:09:11.858Z,70.93
2023-05-03T22:11:39.017Z,63.00
2023-05-03T22:14:08.332Z,67.72
2023-05-03T22:16:42.138Z,72.57
2023-05-03T22:19:10.180Z,69.88
2023-05-03T22:21:37.456Z,68.85
2023-05-03T22:24:05.201Z,79.38
2023-05-03T22:26:32.413Z,69.80
2023-05-03T22:28:59.660Z,72.50
2023-05-03T22:31:27.612Z,64.78
2023-05-03T22:33:54.958Z,67.13
2023-05-03T22:36:22.345Z,61.20
2023-05-03T22:38:49.606Z,61.50
2023-05-03T22:41:16.874Z,65.40
2023-05-03T22:43:44.086Z,69.38
2023-05-03T22:46:11.385Z,66.50
2023-05-03T22:48:38.744Z,78.30
2023-05-03T22:51:06.252Z,83.75
2023-05-03T22:53:33.579Z,78.97
2023-05-03T22:56:04.461Z,85.80
2023-05-03T22:58:32.088Z,87.20
2023-05-03T23:00:59.609Z,86.28
2023-05-03T23:03:30.065Z,90.43
2023-05-03T23:05:57.468Z,88.07
2023-05-03T23:08:24.762Z,91.70
2023-05-03T23:10:54.159Z,103.10
2023-05-03T23:13:21.449Z,104.13
2023-05-03T23:15:48.707Z,94.72
2023-05-03T23:18:16.241Z,91.90
2023-05-03T23:20:43.550Z,82.95
2023-05-03T23:23:10.886Z,93.05
2023-05-03T23:25:38.312Z,99.53
2023-05-03T23:28:05.926Z,101.45
2023-05-03T23:30:33.675Z,97.50
2023-05-03T23:33:01.589Z,102.13
2023-05-03T23:35:29.010Z,93.50
2023-05-03T23:37:56.327Z,104.53
2023-05-03T23:40:24.137Z,96.47
2023-05-03T23:42:51.419Z,102.10
2023-05-03T23:45:18.801Z,110.88
2023-05-03T23:47:46.492Z,107.80
2023-05-03T23:50:14.039Z,106.28
2023-05-03T23:52:42.471Z,111.90
2023-05-03T23:55:10.431Z,125.18
2023-05-03T23:57:38.022Z,113.57
